Whitburn, United Kingdom
Current Conditions -  °F | °C
As of 11:20 AM on Tuesday 21 Oct 2014 (Local Time) from EGPH Reporting Station
Few Clouds Few Clouds  
Wind Chill: 50°   Ceiling: Unl
Heat Index: 50°   Visibility: 6mi
Dew Point: 37°   Wind: 17mph
Humidity: 62%   Direction: 280°W
Pressure: 29.35"   Gusts: NA
Location:  55.87°N, 3.68°W
Report Text: EGPH 211020Z 28015KT 240V300 9999 FEW032 10/03 Q0994
Loading
Personal Weather Stations






























Interactive Weather Map New forecast layout! Learn more

10-Day Weather Forecast

Advertisements
Track Severe Weather on mobile